Griffin, Indiana
Current Conditions -  °F | °C
As of 11:35 PM on Wednesday 17 Dec 2014 (Local Time) from KCUL Reporting Station
Clear Clear  
Wind Chill: 25°   Ceiling: Unl
Heat Index: 31°   Visibility: 10mi
Dew Point: 29°   Wind: 7mph
Humidity: 90%   Direction: 20°NNE
Pressure: 30.3"   Gusts: NA
Location:  38.2°N, 87.91°W
Report Text: KCUL 180535Z AUTO 02006KT 10SM CLR 00/M02 A3030 RMK AO2 T10031018
Loading
Personal Weather Stations






























Interactive Weather Map New forecast layout! Learn more

10-Day Weather Forecast

Advertisements
Track Severe Weather on mobile